Time;durP1;ratioP1;P1;durP2;ratioP2;P2;SDS_P1;SDS_P2;PMS_P1;PMS_P2;Temp;Humidity;BMP_temperature;BMP_pressure;BME280_temperature;BME280_humidity;BME280_pressure;Samples;Min_cycle;Max_cycle;Signal;HPM_P1;HPM_P2
2022/01/22 00:00:12;;;;;;;21.70;3.50;;;7.70;99.90;;;;;;5022011;28;20053;-62
2022/01/22 00:02:38;;;;;;;22.17;4.05;;;7.70;99.90;;;;;;5008841;28;20041;-62
2022/01/22 00:05:06;;;;;;;36.55;4.53;;;7.70;99.90;;;;;;5020200;28;20140;-62
2022/01/22 00:07:31;;;;;;;32.90;4.40;;;7.70;99.90;;;;;;5020891;28;20037;-62
2022/01/22 00:10:03;;;;;;;15.07;2.75;;;7.70;99.90;;;;;;5027232;28;20037;-62
2022/01/22 00:14:59;;;;;;;20.02;3.97;;;7.70;99.90;;;;;;5027977;28;20049;-62
2022/01/22 00:17:25;;;;;;;17.15;3.38;;;7.70;99.90;;;;;;5016413;28;20042;-62
2022/01/22 00:19:50;;;;;;;14.35;3.92;;;7.70;99.90;;;;;;5025338;28;20041;-62
2022/01/22 00:22:16;;;;;;;15.43;3.63;;;7.70;99.90;;;;;;5011299;28;20050;-62
2022/01/22 00:24:42;;;;;;;16.73;3.38;;;7.70;99.90;;;;;;5010130;28;20042;-62
2022/01/22 00:27:07;;;;;;;25.80;3.83;;;7.70;99.90;;;;;;5008429;28;20056;-62
2022/01/22 00:29:33;;;;;;;15.30;3.78;;;7.70;99.90;;;;;;5011061;28;20045;-62
2022/01/22 00:31:58;;;;;;;28.45;4.97;;;7.70;99.90;;;;;;5019019;28;20042;-62
2022/01/22 00:34:24;;;;;;;26.73;3.90;;;7.80;99.90;;;;;;5009745;28;20560;-62
2022/01/22 00:36:49;;;;;;;29.45;4.28;;;7.70;99.90;;;;;;5018159;28;20051;-62
2022/01/22 00:39:15;;;;;;;25.10;4.43;;;7.70;99.90;;;;;;5016485;28;20053;-62
2022/01/22 00:41:40;;;;;;;21.48;4.72;;;7.70;99.90;;;;;;5023941;28;20485;-62
2022/01/22 00:44:06;;;;;;;24.23;3.88;;;7.70;99.90;;;;;;5023250;28;20450;-62
2022/01/22 00:46:33;;;;;;;18.05;3.22;;;7.70;99.90;;;;;;5015504;28;20440;-62
2022/01/22 00:48:58;;;;;;;31.00;3.20;;;7.70;99.90;;;;;;5024548;28;20041;-62
2022/01/22 00:51:24;;;;;;;35.03;5.03;;;7.70;99.90;;;;;;5023872;28;20049;-62
2022/01/22 00:53:50;;;;;;;21.50;2.90;;;7.80;99.90;;;;;;5011666;28;20695;-62
2022/01/22 00:56:16;;;;;;;14.93;3.13;;;7.80;99.90;;;;;;5018912;28;20259;-62
2022/01/22 00:58:41;;;;;;;18.40;3.20;;;7.80;99.90;;;;;;5011861;28;20133;-62
2022/01/22 01:01:07;;;;;;;19.08;3.58;;;7.80;99.90;;;;;;4998106;28;20048;-62
2022/01/22 01:03:34;;;;;;;15.73;3.25;;;7.80;99.90;;;;;;5015308;28;20406;-62
2022/01/22 01:06:01;;;;;;;27.50;3.25;;;7.80;99.90;;;;;;5007962;28;20092;-62
2022/01/22 01:08:28;;;;;;;13.38;3.30;;;7.70;99.90;;;;;;5023483;28;20041;-62
2022/01/22 01:10:54;;;;;;;10.98;1.83;;;7.80;99.90;;;;;;5024963;28;20050;-62
2022/01/22 01:13:20;;;;;;;17.13;2.58;;;7.80;99.90;;;;;;5016716;28;20137;-62
2022/01/22 01:32:20;;;;;;;19.77;2.88;;;7.70;99.90;;;;;;5024337;28;20134;-62
2022/01/22 01:34:47;;;;;;;17.85;2.65;;;7.70;99.90;;;;;;5014635;28;20604;-62
2022/01/22 01:37:16;;;;;;;5.97;1.67;;;7.70;99.90;;;;;;5009180;28;20203;-62
2022/01/22 01:39:45;;;;;;;9.68;1.98;;;7.60;99.90;;;;;;5008397;28;20148;-62
2022/01/22 01:42:17;;;;;;;9.75;2.33;;;7.60;99.90;;;;;;5017174;28;20106;-62
2022/01/22 01:44:42;;;;;;;9.80;2.45;;;7.60;99.90;;;;;;5015611;28;20052;-62
2022/01/22 01:47:10;;;;;;;17.08;2.70;;;7.60;99.90;;;;;;5007142;28;20045;-62
2022/01/22 01:49:35;;;;;;;11.75;1.83;;;7.60;99.90;;;;;;5007663;28;20046;-62
2022/01/22 01:52:04;;;;;;;8.73;1.10;;;7.50;99.90;;;;;;5026947;28;20045;-62
2022/01/22 01:54:59;;;;;;;13.38;1.50;;;7.60;99.90;;;;;;5017403;28;20046;-62
2022/01/22 01:57:32;;;;;;;9.20;1.90;;;7.60;99.90;;;;;;5012398;28;20046;-62
2022/01/22 01:59:59;;;;;;;8.32;1.55;;;7.50;99.90;;;;;;5008764;28;20513;-62
2022/01/22 02:02:27;;;;;;;10.10;1.27;;;7.50;99.90;;;;;;5026387;28;20048;-62
2022/01/22 02:04:52;;;;;;;9.93;1.58;;;7.50;99.90;;;;;;5001652;28;20104;-62
2022/01/22 02:07:18;;;;;;;7.43;1.42;;;7.50;99.90;;;;;;5021844;28;20045;-62
2022/01/22 02:09:44;;;;;;;7.00;1.15;;;7.50;99.90;;;;;;5009106;28;20081;-62
2022/01/22 02:25:18;;;;;;;13.30;2.00;;;7.50;99.90;;;;;;5008277;28;20076;-62
2022/01/22 02:27:44;;;;;;;9.65;1.73;;;7.50;99.90;;;;;;5015909;28;20081;-62
2022/01/22 02:30:17;;;;;;;10.32;1.42;;;7.50;99.90;;;;;;5009136;28;20061;-62
2022/01/22 02:33:04;;;;;;;11.48;1.75;;;7.50;99.90;;;;;;5020324;28;20050;-62
2022/01/22 02:35:42;;;;;;;10.25;1.50;;;7.50;99.90;;;;;;5007432;28;20104;-62
2022/01/22 02:38:11;;;;;;;12.82;1.98;;;7.40;99.90;;;;;;5010978;28;20054;-62
2022/01/22 02:40:44;;;;;;;15.88;2.08;;;7.50;99.90;;;;;;5009839;28;20561;-62
2022/01/22 02:43:11;;;;;;;8.45;1.55;;;7.40;99.90;;;;;;5012441;28;20060;-62
2022/01/22 02:45:36;;;;;;;15.20;1.67;;;7.40;99.90;;;;;;5019881;28;20050;-62
2022/01/22 02:48:02;;;;;;;11.05;1.75;;;7.40;99.90;;;;;;5009364;28;20038;-62
2022/01/22 02:50:28;;;;;;;6.10;1.98;;;7.40;99.90;;;;;;5019044;28;20484;-62
2022/01/22 02:52:53;;;;;;;10.25;2.67;;;7.50;99.90;;;;;;5016420;28;20137;-62
2022/01/22 02:55:19;;;;;;;10.93;1.77;;;7.50;99.90;;;;;;5011070;28;20054;-62
2022/01/22 02:57:45;;;;;;;8.05;2.20;;;7.50;99.90;;;;;;5012107;28;20038;-62
2022/01/22 03:00:18;;;;;;;10.95;1.45;;;7.50;99.90;;;;;;4998869;28;20103;-62
2022/01/22 03:02:44;;;;;;;11.90;1.38;;;7.50;99.90;;;;;;5012651;28;20561;-62
2022/01/22 03:05:10;;;;;;;6.18;1.05;;;7.50;99.90;;;;;;5022053;28;20056;-62
2022/01/22 03:07:38;;;;;;;7.47;1.45;;;7.50;99.90;;;;;;5018784;28;20076;-62
2022/01/22 03:10:05;;;;;;;7.97;1.20;;;7.50;99.90;;;;;;5020352;28;20050;-63
2022/01/22 03:17:55;;;;;;;7.82;1.70;;;7.50;99.90;;;;;;5010687;28;20132;-62
2022/01/22 03:23:12;;;;;;;8.45;1.30;;;7.50;99.90;;;;;;5023366;28;20057;-63
2022/01/22 03:28:27;;;;;;;14.05;2.20;;;7.50;99.90;;;;;;5014149;28;20057;-62
2022/01/22 03:30:52;;;;;;;3.58;0.82;;;7.50;99.90;;;;;;5010121;28;20486;-62
2022/01/22 03:33:23;;;;;;;9.88;2.70;;;7.50;99.90;;;;;;5023522;28;20080;-62
2022/01/22 03:35:55;;;;;;;12.73;1.65;;;7.40;99.90;;;;;;5019029;28;20060;-62
2022/01/22 03:38:22;;;;;;;13.20;1.73;;;7.40;99.90;;;;;;5015596;28;20044;-62
2022/01/22 03:40:49;;;;;;;10.90;1.65;;;7.30;99.90;;;;;;5019635;28;20444;-62
2022/01/22 03:43:16;;;;;;;9.85;2.35;;;7.30;99.90;;;;;;5014515;28;20049;-62
2022/01/22 03:45:41;;;;;;;7.82;1.40;;;7.40;99.90;;;;;;5023493;28;20058;-63
2022/01/22 03:48:07;;;;;;;8.57;1.92;;;7.40;99.90;;;;;;5015066;28;20042;-62
2022/01/22 03:50:32;;;;;;;6.90;1.52;;;7.30;99.90;;;;;;5021381;28;20050;-62
2022/01/22 03:52:58;;;;;;;11.75;1.95;;;7.30;99.90;;;;;;5026504;28;20141;-62
2022/01/22 03:55:37;;;;;;;16.50;2.13;;;7.30;99.90;;;;;;5018218;28;20387;-62
2022/01/22 03:58:03;;;;;;;10.23;1.67;;;7.30;99.90;;;;;;5027011;28;20116;-63
2022/01/22 04:00:29;;;;;;;11.70;1.58;;;7.30;99.90;;;;;;5014479;28;20179;-62
2022/01/22 04:05:53;;;;;;;16.20;2.22;;;7.30;99.90;;;;;;5024129;28;20120;-62
2022/01/22 04:08:19;;;;;;;10.02;2.20;;;7.40;99.90;;;;;;5027784;28;20048;-62
2022/01/22 04:10:44;;;;;;;18.92;2.10;;;7.30;99.90;;;;;;5027911;28;20493;-62
2022/01/22 04:13:14;;;;;;;6.70;1.38;;;7.30;99.90;;;;;;5020311;28;20128;-62
2022/01/22 04:15:40;;;;;;;12.18;1.55;;;7.30;99.90;;;;;;5009844;28;20057;-62
2022/01/22 04:26:34;;;;;;;12.20;2.53;;;7.30;99.90;;;;;;5021754;28;20053;-62
2022/01/22 04:29:00;;;;;;;11.27;1.80;;;7.40;99.90;;;;;;5009307;28;20124;-62
2022/01/22 04:31:26;;;;;;;11.25;2.13;;;7.40;99.90;;;;;;5013050;28;20140;-62
2022/01/22 04:33:51;;;;;;;12.13;2.33;;;7.40;99.90;;;;;;5016251;28;20383;-62
2022/01/22 04:36:17;;;;;;;12.77;1.90;;;7.40;99.90;;;;;;5028335;28;20107;-62
2022/01/22 04:38:42;;;;;;;7.93;1.50;;;7.40;99.90;;;;;;5027763;28;20037;-62
2022/01/22 04:41:08;;;;;;;8.55;1.80;;;7.40;99.90;;;;;;5012514;28;20459;-62
2022/01/22 04:43:35;;;;;;;14.18;2.67;;;7.40;99.90;;;;;;5009455;28;20444;-62
2022/01/22 04:48:48;;;;;;;9.27;1.83;;;7.40;99.90;;;;;;5024358;28;20049;-62
2022/01/22 04:56:42;;;;;;;8.77;1.58;;;7.40;99.90;;;;;;5022029;28;20136;-62
2022/01/22 04:59:08;;;;;;;14.23;1.58;;;7.40;99.90;;;;;;5027904;28;20644;-62
2022/01/22 05:01:34;;;;;;;9.60;1.25;;;7.40;99.90;;;;;;5018892;28;20110;-62
2022/01/22 05:03:59;;;;;;;5.38;1.17;;;7.40;99.90;;;;;;5022268;28;20091;-62
2022/01/22 05:06:26;;;;;;;3.92;1.00;;;7.40;99.90;;;;;;5012940;28;20045;-62
2022/01/22 05:08:52;;;;;;;7.43;1.35;;;7.40;99.90;;;;;;5004767;28;20057;-62
2022/01/22 05:11:18;;;;;;;7.95;1.50;;;7.30;99.90;;;;;;5014059;28;20049;-62
2022/01/22 05:13:44;;;;;;;5.97;1.23;;;7.40;99.90;;;;;;5014921;28;20425;-62
2022/01/22 05:16:09;;;;;;;12.05;1.50;;;7.40;99.90;;;;;;5021079;28;20046;-62
2022/01/22 05:18:42;;;;;;;11.13;1.60;;;7.40;99.90;;;;;;5016965;28;20038;-62
2022/01/22 05:21:12;;;;;;;9.73;1.40;;;7.30;99.90;;;;;;4995923;28;20139;-62
2022/01/22 05:23:39;;;;;;;7.95;1.50;;;7.30;99.90;;;;;;5021367;28;20033;-62
2022/01/22 05:26:10;;;;;;;7.57;1.70;;;7.30;99.90;;;;;;5015268;28;20065;-62
2022/01/22 05:29:13;;;;;;;7.45;1.20;;;7.30;99.90;;;;;;5001562;28;20057;-62
2022/01/22 05:32:03;;;;;;;11.30;1.73;;;7.30;99.90;;;;;;5011753;28;20379;-62
2022/01/22 05:37:11;;;;;;;5.93;1.73;;;7.30;99.90;;;;;;5019087;28;21037;-62
2022/01/22 05:39:37;;;;;;;5.45;1.58;;;7.30;99.90;;;;;;5008621;28;20049;-62
2022/01/22 05:42:05;;;;;;;8.02;1.48;;;7.30;99.90;;;;;;5015601;28;20064;-62
2022/01/22 05:44:32;;;;;;;5.47;1.15;;;7.20;99.90;;;;;;5013605;28;20049;-62
2022/01/22 05:47:05;;;;;;;11.00;1.30;;;7.20;99.90;;;;;;5007797;28;20490;-62
2022/01/22 05:49:34;;;;;;;9.00;1.42;;;7.20;99.90;;;;;;5009306;28;20038;-62
2022/01/22 05:52:02;;;;;;;6.55;1.58;;;7.10;99.90;;;;;;5012391;28;20485;-62
2022/01/22 05:59:39;;;;;;;7.38;1.42;;;7.20;99.90;;;;;;5008633;28;20057;-62
2022/01/22 06:02:13;;;;;;;12.52;1.55;;;7.10;99.90;;;;;;5007901;28;20055;-62
2022/01/22 06:04:39;;;;;;;11.45;1.48;;;7.10;99.90;;;;;;5015622;28;20068;-62
2022/01/22 06:07:06;;;;;;;11.35;1.35;;;7.10;99.90;;;;;;5014170;28;20474;-62
2022/01/22 06:09:33;;;;;;;7.22;1.45;;;7.10;99.90;;;;;;5013168;28;20453;-62
2022/01/22 06:14:35;;;;;;;7.82;0.90;;;7.10;99.90;;;;;;5027412;28;20046;-62
2022/01/22 06:17:01;;;;;;;5.03;1.75;;;7.10;99.90;;;;;;5027784;28;20504;-62
2022/01/22 06:19:27;;;;;;;5.97;0.93;;;7.10;99.90;;;;;;5015986;28;20042;-62
2022/01/22 06:21:53;;;;;;;9.60;1.35;;;7.10;99.90;;;;;;5002239;28;20049;-62
2022/01/22 06:24:19;;;;;;;7.43;1.27;;;7.10;99.90;;;;;;5026199;28;20042;-62
2022/01/22 06:26:45;;;;;;;10.07;1.33;;;7.10;99.90;;;;;;5025924;28;20481;-62
2022/01/22 06:29:11;;;;;;;9.55;1.40;;;7.10;99.90;;;;;;5016536;28;20049;-62
2022/01/22 06:31:37;;;;;;;5.70;1.85;;;7.10;99.90;;;;;;5016625;28;20061;-62
2022/01/22 06:34:04;;;;;;;12.82;1.88;;;7.10;99.90;;;;;;5012482;28;20060;-62
2022/01/22 06:36:29;;;;;;;6.10;1.25;;;7.10;99.90;;;;;;5012387;28;20394;-62
2022/01/22 06:39:08;;;;;;;10.70;1.42;;;7.10;99.90;;;;;;5014467;28;20049;-62
2022/01/22 06:41:46;;;;;;;10.65;2.50;;;7.10;99.90;;;;;;5014290;28;20557;-62
2022/01/22 06:44:12;;;;;;;10.43;2.17;;;7.10;99.90;;;;;;5027494;28;20497;-62
2022/01/22 06:46:37;;;;;;;10.70;1.90;;;7.10;99.90;;;;;;5030652;28;20120;-62
2022/01/22 06:49:03;;;;;;;10.90;1.67;;;7.10;99.90;;;;;;5022728;28;20042;-62
2022/01/22 06:51:29;;;;;;;8.63;1.92;;;7.20;99.90;;;;;;5013338;28;20112;-62
2022/01/22 06:53:55;;;;;;;8.82;1.70;;;7.10;99.90;;;;;;5017311;28;20049;-62
2022/01/22 06:56:21;;;;;;;12.98;2.20;;;7.20;99.90;;;;;;4994401;28;20048;-62
2022/01/22 06:58:48;;;;;;;9.50;2.33;;;7.20;99.90;;;;;;5008078;28;20049;-62
2022/01/22 07:01:14;;;;;;;12.90;2.25;;;7.10;99.90;;;;;;5030369;28;20140;-62
2022/01/22 07:03:40;;;;;;;8.88;1.55;;;7.10;99.90;;;;;;5023322;28;20050;-62
2022/01/22 07:06:06;;;;;;;12.63;1.75;;;7.20;99.90;;;;;;5024302;28;20045;-62
2022/01/22 07:08:32;;;;;;;10.00;2.28;;;7.20;99.90;;;;;;5029966;28;20081;-62
2022/01/22 07:10:58;;;;;;;18.90;2.65;;;7.20;99.90;;;;;;5003526;28;20049;-62
2022/01/22 07:13:23;;;;;;;14.35;2.67;;;7.20;99.90;;;;;;5011832;28;20041;-62
2022/01/22 07:15:49;;;;;;;10.77;3.00;;;7.20;99.90;;;;;;5027194;28;20366;-62
2022/01/22 07:18:15;;;;;;;14.43;2.45;;;7.20;99.90;;;;;;5028565;28;20056;-62
2022/01/22 07:20:42;;;;;;;9.43;1.88;;;7.30;99.90;;;;;;5017287;28;20572;-62
2022/01/22 07:23:31;;;;;;;11.52;1.90;;;7.30;99.90;;;;;;5019771;28;20442;-62
2022/01/22 07:25:56;;;;;;;13.20;3.13;;;7.30;99.90;;;;;;5011453;28;20152;-62
2022/01/22 07:28:22;;;;;;;14.00;2.20;;;7.30;99.90;;;;;;5010640;28;20088;-62
2022/01/22 07:30:48;;;;;;;9.18;2.90;;;7.30;99.90;;;;;;5020844;28;20466;-62
2022/01/22 07:33:14;;;;;;;13.20;2.47;;;7.40;99.90;;;;;;5014648;28;20053;-62
2022/01/22 07:35:40;;;;;;;17.15;2.97;;;7.30;99.90;;;;;;5018279;28;20080;-62
2022/01/22 07:38:06;;;;;;;13.13;2.50;;;7.40;99.90;;;;;;5025170;28;20575;-62
2022/01/22 07:40:31;;;;;;;15.35;2.80;;;7.40;99.90;;;;;;5028605;28;20046;-62
2022/01/22 07:42:57;;;;;;;18.42;2.80;;;7.40;99.90;;;;;;5015555;28;20093;-62
2022/01/22 07:45:23;;;;;;;12.57;2.97;;;7.40;99.90;;;;;;5020725;28;20045;-62
2022/01/22 07:47:49;;;;;;;20.13;2.42;;;7.40;99.90;;;;;;5029882;28;20455;-63
2022/01/22 07:50:14;;;;;;;13.48;2.50;;;7.40;99.90;;;;;;5020925;28;20045;-62
2022/01/22 07:52:40;;;;;;;15.93;3.35;;;7.50;99.90;;;;;;5027565;28;20404;-62
2022/01/22 07:55:07;;;;;;;13.70;2.28;;;7.40;99.90;;;;;;5011054;28;20050;-62
2022/01/22 07:57:33;;;;;;;15.00;2.63;;;7.50;99.90;;;;;;5007432;28;20101;-62
2022/01/22 07:59:58;;;;;;;13.07;3.17;;;7.40;99.90;;;;;;5013333;28;20042;-62
2022/01/22 08:02:24;;;;;;;12.63;2.28;;;7.40;99.90;;;;;;5010281;28;20556;-62
2022/01/22 08:04:50;;;;;;;10.32;1.70;;;7.40;99.90;;;;;;5019497;28;20041;-63
2022/01/22 08:07:16;;;;;;;13.10;2.22;;;7.40;99.90;;;;;;5015213;28;20081;-62
2022/01/22 08:09:43;;;;;;;17.00;1.95;;;7.40;99.90;;;;;;5010070;28;20050;-62
2022/01/22 08:12:09;;;;;;;13.70;2.08;;;7.40;99.90;;;;;;5009604;28;20057;-62
2022/01/22 08:14:35;;;;;;;9.63;2.00;;;7.50;99.90;;;;;;5025403;28;20400;-62
2022/01/22 08:17:00;;;;;;;11.02;1.50;;;7.50;99.90;;;;;;5009047;28;20046;-62
2022/01/22 08:19:26;;;;;;;16.40;2.28;;;7.40;99.90;;;;;;5010306;28;20524;-62
2022/01/22 08:21:51;;;;;;;12.63;2.45;;;7.40;99.90;;;;;;5009358;28;20037;-62
2022/01/22 08:24:19;;;;;;;16.60;2.85;;;7.40;99.90;;;;;;5016639;28;20044;-62
2022/01/22 08:26:50;;;;;;;15.13;2.53;;;7.50;99.90;;;;;;5014295;28;20040;-63
2022/01/22 08:29:15;;;;;;;16.13;3.13;;;7.50;99.90;;;;;;5016264;28;20050;-62
2022/01/22 08:32:03;;;;;;;21.60;2.95;;;7.50;99.90;;;;;;5015010;28;20064;-62
2022/01/22 08:37:13;;;;;;;10.32;2.22;;;7.60;99.90;;;;;;5020149;28;20050;-62
2022/01/22 08:39:38;;;;;;;13.10;2.70;;;7.60;99.90;;;;;;5016503;28;20050;-62
2022/01/22 08:42:06;;;;;;;11.98;2.25;;;7.60;99.90;;;;;;5015041;28;20067;-62
2022/01/22 08:44:31;;;;;;;11.05;2.45;;;7.60;99.90;;;;;;5014405;28;20704;-62
2022/01/22 08:46:57;;;;;;;14.00;2.60;;;7.60;99.90;;;;;;5014146;28;20046;-62
2022/01/22 08:49:23;;;;;;;9.75;1.52;;;7.60;99.90;;;;;;5016910;28;20517;-62
2022/01/22 08:51:48;;;;;;;11.32;2.22;;;7.60;99.90;;;;;;5026609;28;20068;-62
2022/01/22 08:54:14;;;;;;;16.15;2.13;;;7.70;99.90;;;;;;5008758;28;20050;-62
2022/01/22 08:56:41;;;;;;;11.13;2.40;;;7.60;99.90;;;;;;5010056;28;20045;-61
2022/01/22 08:59:08;;;;;;;17.58;4.97;;;7.70;99.90;;;;;;5018693;28;20053;-61
2022/01/22 09:01:35;;;;;;;12.40;2.78;;;7.70;99.90;;;;;;5013449;28;20046;-62
2022/01/22 09:04:01;;;;;;;14.07;2.53;;;7.70;99.90;;;;;;5007917;28;20502;-62
2022/01/22 09:06:28;;;;;;;16.65;2.58;;;7.70;99.90;;;;;;5017579;28;20044;-62
2022/01/22 09:08:59;;;;;;;14.27;2.28;;;7.70;99.90;;;;;;5009059;28;20081;-62
2022/01/22 09:11:25;;;;;;;19.27;2.30;;;7.80;99.90;;;;;;5008336;28;20053;-62
2022/01/22 09:13:51;;;;;;;14.32;3.20;;;7.70;99.90;;;;;;5017021;28;20041;-62
2022/01/22 09:16:16;;;;;;;14.38;2.95;;;7.80;99.90;;;;;;5015484;28;20133;-62
2022/01/22 09:18:42;;;;;;;11.15;2.78;;;7.80;99.90;;;;;;5007388;28;20072;-62
2022/01/22 09:21:08;;;;;;;15.27;2.42;;;7.80;99.90;;;;;;5007918;28;20089;-62
2022/01/22 09:23:34;;;;;;;10.00;2.95;;;7.80;99.90;;;;;;5024546;28;20056;-62
2022/01/22 09:26:00;;;;;;;13.57;3.10;;;7.90;99.90;;;;;;5027865;28;20066;-62
2022/01/22 09:28:27;;;;;;;22.48;3.70;;;7.90;99.90;;;;;;5006524;28;20069;-62
2022/01/22 09:30:53;;;;;;;6.70;2.25;;;7.90;99.90;;;;;;5011149;28;20515;-62
2022/01/22 09:33:19;;;;;;;12.00;2.55;;;7.90;99.90;;;;;;5025394;28;20140;-62
2022/01/22 09:35:45;;;;;;;13.30;2.50;;;7.90;99.90;;;;;;5008212;28;20070;-62
2022/01/22 09:38:11;;;;;;;20.27;3.78;;;7.90;99.90;;;;;;5007969;28;20084;-62
2022/01/22 09:40:36;;;;;;;23.00;5.00;;;7.90;99.90;;;;;;5008865;28;20054;-61
2022/01/22 09:43:02;;;;;;;15.27;3.63;;;7.90;99.90;;;;;;5011181;28;20490;-62
2022/01/22 09:45:30;;;;;;;12.77;2.92;;;7.90;99.90;;;;;;5002916;28;20395;-62
2022/01/22 09:47:58;;;;;;;11.60;2.40;;;7.90;99.90;;;;;;4990417;28;20050;-62
2022/01/22 09:50:26;;;;;;;18.38;4.25;;;7.90;99.90;;;;;;5009415;28;20092;-62
2022/01/22 09:52:52;;;;;;;15.52;3.83;;;7.90;99.90;;;;;;5010840;28;20057;-62
2022/01/22 09:55:18;;;;;;;17.65;3.20;;;7.90;99.90;;;;;;5007912;28;20749;-62
2022/01/22 09:57:45;;;;;;;14.45;2.70;;;7.90;99.90;;;;;;5015255;28;20045;-62
2022/01/22 10:00:13;;;;;;;21.63;3.95;;;7.90;99.90;;;;;;5026481;28;20045;-62
2022/01/22 10:02:50;;;;;;;19.20;3.65;;;7.90;99.90;;;;;;5020925;28;20092;-62
2022/01/22 10:05:37;;;;;;;13.85;3.33;;;7.90;99.90;;;;;;5026463;28;20042;-62
2022/01/22 10:08:19;;;;;;;13.10;2.95;;;7.90;99.90;;;;;;5014243;28;20046;-62
2022/01/22 10:10:45;;;;;;;15.10;2.63;;;8.00;99.90;;;;;;5005782;28;20114;-62
2022/01/22 10:13:11;;;;;;;14.35;3.75;;;8.00;99.90;;;;;;5019964;28;20139;-62
2022/01/22 10:15:39;;;;;;;17.38;3.10;;;8.10;99.90;;;;;;5028267;28;20092;-62
2022/01/22 10:18:06;;;;;;;11.25;2.40;;;8.10;99.90;;;;;;5022217;28;20131;-62
2022/01/22 10:20:43;;;;;;;17.77;2.80;;;8.10;99.90;;;;;;5016811;28;20045;-62
2022/01/22 10:23:20;;;;;;;11.45;2.45;;;8.10;99.90;;;;;;5007954;28;20539;-63
2022/01/22 10:25:56;;;;;;;15.05;3.72;;;8.10;99.90;;;;;;5034402;28;20061;-63
2022/01/22 10:28:25;;;;;;;12.07;2.75;;;8.10;99.90;;;;;;5024176;28;20121;-62
2022/01/22 10:30:56;;;;;;;12.93;2.45;;;8.20;99.90;;;;;;5014289;28;20072;-62
2022/01/22 10:33:30;;;;;;;14.13;2.53;;;8.20;99.90;;;;;;5020927;28;20046;-62
2022/01/22 10:36:09;;;;;;;15.82;2.50;;;8.10;99.90;;;;;;5029661;28;20396;-62
2022/01/22 10:38:39;;;;;;;13.70;3.13;;;8.10;99.90;;;;;;5034196;28;20432;-62
2022/01/22 10:41:07;;;;;;;16.95;3.03;;;8.20;99.90;;;;;;5033315;28;20060;-62
2022/01/22 10:43:34;;;;;;;13.63;2.30;;;8.20;99.90;;;;;;5014331;28;20049;-62
2022/01/22 10:48:55;;;;;;;14.50;2.72;;;8.20;99.90;;;;;;5025129;28;20417;-63
2022/01/22 10:51:21;;;;;;;16.40;2.72;;;8.20;99.90;;;;;;5032050;28;20053;-62
2022/01/22 10:53:57;;;;;;;14.13;1.88;;;8.20;99.90;;;;;;5034034;28;20480;-63
2022/01/22 10:56:24;;;;;;;8.05;1.60;;;8.20;99.90;;;;;;5033717;28;20049;-63
2022/01/22 10:58:58;;;;;;;13.02;2.08;;;8.20;99.90;;;;;;5032576;28;20077;-62
2022/01/22 11:01:45;;;;;;;8.73;1.95;;;8.20;99.90;;;;;;5029060;28;20508;-63
2022/01/22 11:04:13;;;;;;;15.95;2.70;;;8.20;99.90;;;;;;5013361;28;20058;-62
2022/01/22 11:06:45;;;;;;;8.85;2.10;;;8.30;99.90;;;;;;5014304;28;20054;-63
2022/01/22 11:09:11;;;;;;;12.55;2.35;;;8.30;99.90;;;;;;5012571;28;20054;-62
2022/01/22 11:11:40;;;;;;;12.68;1.95;;;8.20;99.90;;;;;;5016035;28;20508;-62
2022/01/22 11:14:08;;;;;;;17.67;2.60;;;8.30;99.90;;;;;;5019125;28;20037;-62
2022/01/22 11:16:36;;;;;;;17.00;2.75;;;8.30;99.90;;;;;;5015982;28;20565;-62
2022/01/22 11:19:03;;;;;;;12.48;2.05;;;8.30;99.90;;;;;;5009395;28;20114;-62
2022/01/22 11:21:31;;;;;;;8.23;1.60;;;8.30;99.90;;;;;;5015903;28;20037;-62
2022/01/22 11:23:58;;;;;;;7.95;2.08;;;8.30;99.90;;;;;;5011484;28;20050;-63
2022/01/22 11:26:24;;;;;;;10.63;1.50;;;8.20;99.90;;;;;;5018761;28;20141;-62
2022/01/22 11:28:52;;;;;;;10.15;2.30;;;8.30;99.90;;;;;;5023718;28;20040;-62
2022/01/22 11:31:19;;;;;;;8.07;2.00;;;8.30;99.90;;;;;;5019287;28;20454;-62
2022/01/22 11:33:47;;;;;;;9.85;2.00;;;8.30;99.90;;;;;;5018285;28;20045;-62
2022/01/22 11:36:21;;;;;;;15.20;2.88;;;8.30;99.90;;;;;;5017782;28;20088;-62
2022/01/22 11:38:56;;;;;;;9.88;2.42;;;8.30;99.90;;;;;;5017007;28;20054;-62
2022/01/22 11:41:23;;;;;;;11.85;2.20;;;8.30;99.90;;;;;;5012616;28;20693;-62
2022/01/22 11:44:06;;;;;;;8.02;1.83;;;8.40;99.90;;;;;;5026794;28;20071;-62
2022/01/22 11:46:39;;;;;;;10.13;2.27;;;8.40;99.90;;;;;;5016675;28;20057;-62
2022/01/22 11:49:10;;;;;;;8.13;1.65;;;8.40;99.90;;;;;;4996332;28;20338;-63
2022/01/22 11:51:36;;;;;;;10.48;2.08;;;8.40;99.90;;;;;;5016479;28;20045;-62
2022/01/22 11:54:02;;;;;;;17.05;1.85;;;8.40;99.90;;;;;;5010339;28;20342;-62
2022/01/22 11:56:29;;;;;;;6.63;1.98;;;8.40;99.90;;;;;;5019878;28;20053;-63
2022/01/22 11:59:06;;;;;;;11.25;2.33;;;8.40;99.90;;;;;;5029547;28;20045;-62
2022/01/22 12:01:54;;;;;;;12.25;1.98;;;8.40;99.90;;;;;;5011239;28;20136;-62
2022/01/22 12:04:21;;;;;;;10.63;2.03;;;8.40;99.90;;;;;;5012720;28;20038;-63
2022/01/22 12:07:01;;;;;;;12.18;2.05;;;8.40;99.90;;;;;;5021100;28;20056;-63
2022/01/22 12:09:31;;;;;;;11.80;1.92;;;8.40;99.90;;;;;;5010020;28;20497;-62
2022/01/22 12:14:50;;;;;;;8.25;2.17;;;8.40;99.90;;;;;;5010459;28;20128;-62
2022/01/22 12:17:24;;;;;;;8.40;2.50;;;8.40;99.90;;;;;;5016830;28;20049;-62
2022/01/22 12:22:33;;;;;;;9.15;1.42;;;8.40;99.90;;;;;;5010971;28;20073;-63
2022/01/22 12:25:08;;;;;;;5.57;1.80;;;8.40;99.90;;;;;;5009035;28;20049;-62
2022/01/22 12:27:45;;;;;;;8.18;1.40;;;8.40;99.90;;;;;;5009407;28;20057;-62
2022/01/22 12:30:13;;;;;;;14.75;2.63;;;8.40;99.90;;;;;;5008711;28;20092;-62
2022/01/22 12:32:46;;;;;;;10.77;1.70;;;8.40;99.90;;;;;;5009628;28;20092;-63
2022/01/22 12:35:15;;;;;;;12.52;2.80;;;8.40;99.90;;;;;;5010311;28;20192;-63
2022/01/22 12:37:46;;;;;;;10.35;1.67;;;8.40;99.90;;;;;;5025206;28;20117;-63
2022/01/22 12:40:13;;;;;;;6.50;1.63;;;8.40;99.90;;;;;;5027502;28;20405;-63
2022/01/22 12:43:00;;;;;;;4.25;1.10;;;8.40;99.90;;;;;;5011027;28;20128;-63
2022/01/22 12:45:26;;;;;;;6.13;1.02;;;8.40;99.90;;;;;;5019060;28;20049;-62
2022/01/22 12:47:54;;;;;;;4.55;1.27;;;8.40;99.90;;;;;;5015928;28;20481;-63
2022/01/22 12:50:29;;;;;;;4.43;1.10;;;8.40;99.90;;;;;;4999146;28;20054;-63
2022/01/22 12:52:55;;;;;;;6.13;1.58;;;8.40;99.90;;;;;;5017835;28;20121;-63
2022/01/22 12:55:27;;;;;;;9.32;1.63;;;8.40;99.90;;;;;;5022755;28;20124;-63
2022/01/22 12:57:53;;;;;;;10.77;1.35;;;8.40;99.90;;;;;;5027979;28;20113;-63
2022/01/22 13:00:20;;;;;;;7.22;1.27;;;8.40;99.90;;;;;;5028329;28;20128;-63
2022/01/22 13:02:57;;;;;;;5.30;1.25;;;8.40;99.90;;;;;;5014817;28;20046;-63
2022/01/22 13:05:25;;;;;;;10.25;1.42;;;8.40;99.90;;;;;;5009212;28;20052;-63
2022/01/22 13:07:55;;;;;;;6.78;2.03;;;8.40;99.90;;;;;;4991272;28;20088;-63
2022/01/22 13:10:27;;;;;;;12.50;2.00;;;8.30;99.90;;;;;;5008256;28;20046;-63
2022/01/22 13:12:56;;;;;;;10.85;1.60;;;8.30;99.90;;;;;;5008752;28;20038;-63
2022/01/22 13:15:21;;;;;;;12.13;1.55;;;8.30;99.90;;;;;;5024665;28;20037;-63
2022/01/22 13:18:00;;;;;;;16.00;1.88;;;8.30;99.90;;;;;;5027297;28;20110;-63
2022/01/22 13:20:28;;;;;;;5.20;1.00;;;8.30;99.90;;;;;;5027384;28;20041;-63
2022/01/22 13:22:54;;;;;;;5.53;1.70;;;8.30;99.90;;;;;;5010146;28;20107;-63
2022/01/22 13:25:20;;;;;;;7.57;1.02;;;8.30;99.90;;;;;;5013826;28;20051;-63
2022/01/22 13:28:04;;;;;;;9.70;1.15;;;8.30;99.90;;;;;;5025151;28;20046;-63
2022/01/22 13:30:37;;;;;;;9.43;1.33;;;8.30;99.90;;;;;;5026846;28;20430;-63
2022/01/22 13:33:21;;;;;;;10.70;1.40;;;8.30;99.90;;;;;;5012084;28;20512;-63
2022/01/22 13:49:06;;;;;;;10.20;1.80;;;8.30;99.90;;;;;;5017669;28;20080;-63
2022/01/22 13:51:32;;;;;;;8.05;1.35;;;8.30;99.90;;;;;;5008798;28;20067;-63
2022/01/22 13:53:59;;;;;;;8.60;1.35;;;8.30;99.90;;;;;;5007755;28;20046;-63
2022/01/22 13:56:49;;;;;;;12.23;1.58;;;8.20;99.90;;;;;;5016369;28;20057;-63
2022/01/22 13:59:20;;;;;;;8.52;1.42;;;8.30;99.90;;;;;;5008332;28;20060;-63
2022/01/22 14:02:03;;;;;;;15.55;1.73;;;8.20;99.90;;;;;;5017618;28;20571;-63
2022/01/22 14:04:52;;;;;;;11.33;1.47;;;8.10;99.90;;;;;;5016111;28;20088;-63
2022/01/22 14:07:31;;;;;;;6.93;1.13;;;8.10;99.90;;;;;;5008425;28;20077;-62
2022/01/22 14:10:17;;;;;;;12.32;1.88;;;8.10;99.90;;;;;;5007376;28;20050;-62
2022/01/22 14:12:50;;;;;;;14.82;1.70;;;8.10;99.90;;;;;;4990333;28;20683;-63
2022/01/22 14:15:39;;;;;;;11.32;1.10;;;8.10;99.90;;;;;;5016845;28;20038;-63
2022/01/22 14:18:19;;;;;;;8.18;1.67;;;8.20;99.90;;;;;;5018571;28;20126;-63
2022/01/22 14:20:46;;;;;;;11.98;1.60;;;8.20;99.90;;;;;;5027531;28;20052;-63
2022/01/22 14:23:17;;;;;;;15.50;2.83;;;8.20;99.90;;;;;;5027735;28;20130;-63
2022/01/22 14:25:58;;;;;;;3.83;1.58;;;8.20;99.90;;;;;;5024691;28;20038;-64
2022/01/22 14:28:43;;;;;;;7.55;1.38;;;8.10;99.90;;;;;;5024373;28;20045;-63
2022/01/22 14:31:33;;;;;;;10.05;1.95;;;8.10;99.90;;;;;;5007179;28;20046;-64
2022/01/22 14:34:00;;;;;;;6.88;1.85;;;8.10;99.90;;;;;;5008498;28;20541;-63
2022/01/22 14:36:28;;;;;;;9.77;2.58;;;8.10;99.90;;;;;;5013854;28;20060;-63